Time;durP1;ratioP1;P1;durP2;ratioP2;P2;SDS_P1;SDS_P2;PMS_P1;PMS_P2;Temp;Humidity;BMP_temperature;BMP_pressure;BME280_temperature;BME280_humidity;BME280_pressure;Samples;Min_cycle;Max_cycle;Signal;HPM_P1;HPM_P2
2023/08/07 00:01:16;;;;;;;7.22;0.90;;;14.70;99.90;;;;;;5051803;28;20144;-79
2023/08/07 00:03:42;;;;;;;6.85;1.13;;;14.80;99.90;;;;;;5053145;28;20143;-80
2023/08/07 00:06:07;;;;;;;4.38;0.80;;;14.80;99.90;;;;;;5052357;28;20033;-80
2023/08/07 00:08:33;;;;;;;4.38;0.80;;;14.70;99.90;;;;;;5052329;28;20492;-80
2023/08/07 00:11:06;;;;;;;5.75;0.50;;;14.80;99.90;;;;;;5053069;28;20109;-80
2023/08/07 00:13:32;;;;;;;3.13;0.50;;;14.80;99.90;;;;;;5052480;28;20025;-80
2023/08/07 00:15:58;;;;;;;2.95;0.70;;;14.70;99.90;;;;;;5051762;28;20106;-80
2023/08/07 00:18:23;;;;;;;5.53;0.93;;;14.70;99.90;;;;;;5052039;28;20094;-81
2023/08/07 00:20:49;;;;;;;2.65;0.50;;;14.70;99.90;;;;;;5052961;28;20030;-81
2023/08/07 00:23:14;;;;;;;2.88;0.38;;;14.70;99.90;;;;;;5051731;28;20036;-80
2023/08/07 00:25:40;;;;;;;4.43;0.40;;;14.70;99.90;;;;;;5051394;28;20033;-79
2023/08/07 00:28:06;;;;;;;6.10;1.15;;;14.70;99.90;;;;;;5052826;28;20381;-80
2023/08/07 00:30:31;;;;;;;2.83;0.40;;;14.70;99.90;;;;;;5053152;28;20037;-80
2023/08/07 00:32:57;;;;;;;3.08;0.50;;;14.70;99.90;;;;;;5052400;28;20060;-80
2023/08/07 00:35:23;;;;;;;2.25;0.50;;;14.60;99.90;;;;;;5052733;28;20036;-80
2023/08/07 00:37:48;;;;;;;4.35;0.45;;;14.70;99.90;;;;;;5051484;28;20043;-81
2023/08/07 00:40:14;;;;;;;5.43;0.60;;;14.70;99.90;;;;;;5052748;28;20099;-80
2023/08/07 00:42:39;;;;;;;4.40;0.50;;;14.70;99.90;;;;;;5054073;28;20021;-82
2023/08/07 00:45:05;;;;;;;3.33;0.30;;;14.70;99.90;;;;;;5056430;28;20104;-81
2023/08/07 00:47:31;;;;;;;5.93;0.63;;;14.70;99.90;;;;;;5056297;28;20040;-81
2023/08/07 00:49:59;;;;;;;3.15;0.65;;;14.70;99.90;;;;;;5056558;28;20037;-81
2023/08/07 00:52:25;;;;;;;6.22;0.40;;;14.70;99.90;;;;;;5056583;28;20029;-81
2023/08/07 00:54:51;;;;;;;5.07;0.60;;;14.70;99.90;;;;;;5056458;28;20040;-80
2023/08/07 00:57:17;;;;;;;5.60;0.52;;;14.70;99.90;;;;;;5056922;28;20026;-79
2023/08/07 00:59:43;;;;;;;3.67;0.50;;;14.70;99.90;;;;;;5055150;28;20366;-81
2023/08/07 01:02:10;;;;;;;5.38;0.95;;;14.70;99.90;;;;;;5054764;28;20083;-82
2023/08/07 01:04:36;;;;;;;4.82;0.70;;;14.70;99.90;;;;;;5056346;28;20025;-82
2023/08/07 01:07:01;;;;;;;6.70;0.85;;;14.70;99.90;;;;;;5056334;28;20028;-80
2023/08/07 01:09:27;;;;;;;9.15;1.05;;;14.70;99.90;;;;;;5055872;28;20037;-80
2023/08/07 01:12:22;;;;;;;4.97;0.60;;;14.60;99.90;;;;;;5055866;28;20033;-80
2023/08/07 01:14:53;;;;;;;9.43;1.17;;;14.70;99.90;;;;;;5055099;28;20481;-81
2023/08/07 01:17:22;;;;;;;3.90;0.82;;;14.60;99.90;;;;;;5056248;28;20059;-81
2023/08/07 01:19:49;;;;;;;7.20;0.93;;;14.60;99.90;;;;;;5055744;28;20028;-80
2023/08/07 01:22:16;;;;;;;8.95;1.15;;;14.70;99.90;;;;;;5054592;28;20469;-80
2023/08/07 01:24:48;;;;;;;5.88;0.93;;;14.70;99.90;;;;;;5055988;28;20036;-79
2023/08/07 01:27:32;;;;;;;11.90;1.13;;;14.70;99.90;;;;;;5056404;28;20170;-79
2023/08/07 01:30:21;;;;;;;6.90;0.80;;;14.70;99.90;;;;;;5056300;28;20048;-80
2023/08/07 01:32:52;;;;;;;8.15;1.20;;;14.70;99.90;;;;;;5057310;28;20105;-80
2023/08/07 01:35:25;;;;;;;7.75;0.65;;;14.70;99.90;;;;;;5058053;28;20390;-81
2023/08/07 01:37:51;;;;;;;8.18;1.10;;;14.70;99.90;;;;;;5057014;28;20112;-80
2023/08/07 01:40:18;;;;;;;9.80;1.15;;;14.70;99.90;;;;;;5057338;28;20067;-81
2023/08/07 01:42:44;;;;;;;7.68;1.00;;;14.70;99.90;;;;;;5058856;28;20033;-81
2023/08/07 01:45:10;;;;;;;7.03;1.27;;;14.70;99.90;;;;;;5060779;28;20079;-81
2023/08/07 01:47:36;;;;;;;10.77;1.73;;;14.80;99.90;;;;;;5055655;28;20032;-80
2023/08/07 01:50:02;;;;;;;7.72;1.20;;;14.80;99.90;;;;;;5055617;28;20056;-80
2023/08/07 01:52:27;;;;;;;10.27;1.35;;;14.70;99.90;;;;;;5054422;28;20033;-81
2023/08/07 01:54:53;;;;;;;8.07;1.20;;;14.70;99.90;;;;;;5054214;28;20103;-80
2023/08/07 01:57:19;;;;;;;11.65;1.45;;;14.70;99.90;;;;;;5055720;28;20465;-80
2023/08/07 01:59:44;;;;;;;6.63;1.60;;;14.70;99.90;;;;;;5055829;28;20055;-80
2023/08/07 02:02:10;;;;;;;11.13;1.55;;;14.80;99.90;;;;;;5054345;28;20454;-79
2023/08/07 02:04:36;;;;;;;10.80;2.10;;;14.80;99.90;;;;;;5054958;28;20033;-80
2023/08/07 02:07:01;;;;;;;9.52;1.88;;;14.80;99.90;;;;;;5055595;28;20520;-79
2023/08/07 02:09:27;;;;;;;9.07;1.60;;;14.80;99.90;;;;;;5053965;28;20055;-80
2023/08/07 02:11:53;;;;;;;10.13;1.52;;;14.90;99.90;;;;;;5053784;28;20071;-80
2023/08/07 02:14:18;;;;;;;9.38;1.83;;;14.90;99.90;;;;;;5055007;28;20112;-80
2023/08/07 02:16:44;;;;;;;15.90;1.75;;;14.80;99.90;;;;;;5053621;28;20040;-80
2023/08/07 02:19:09;;;;;;;8.88;1.67;;;14.80;99.90;;;;;;5054912;28;20055;-80
2023/08/07 02:21:35;;;;;;;9.90;2.10;;;14.90;99.90;;;;;;5054519;28;20025;-81
2023/08/07 02:24:01;;;;;;;12.77;1.88;;;14.90;99.90;;;;;;5054695;28;20067;-79
2023/08/07 02:26:26;;;;;;;10.95;1.88;;;14.80;99.90;;;;;;5054937;28;20040;-80
2023/08/07 02:28:52;;;;;;;8.00;1.92;;;14.90;99.90;;;;;;5053257;28;20059;-79
2023/08/07 02:31:17;;;;;;;13.20;1.98;;;14.90;99.90;;;;;;5054576;28;20037;-79
2023/08/07 02:33:43;;;;;;;11.52;1.65;;;14.90;99.90;;;;;;5055020;28;20057;-80
2023/08/07 02:36:09;;;;;;;13.70;2.30;;;14.90;99.90;;;;;;5054963;28;20043;-80
2023/08/07 02:38:34;;;;;;;10.95;2.13;;;14.90;99.90;;;;;;5054951;28;20071;-81
2023/08/07 02:41:00;;;;;;;9.90;1.77;;;14.80;99.90;;;;;;5053708;28;20137;-80
2023/08/07 02:43:27;;;;;;;10.63;1.65;;;14.80;99.90;;;;;;5054475;28;20040;-80
2023/08/07 02:45:52;;;;;;;10.73;2.20;;;14.90;99.90;;;;;;5054517;28;20029;-81
2023/08/07 02:48:18;;;;;;;12.43;2.38;;;14.90;99.90;;;;;;5054800;28;20078;-80
2023/08/07 02:50:43;;;;;;;10.88;2.47;;;14.80;99.90;;;;;;5052912;28;20048;-80
2023/08/07 02:53:09;;;;;;;15.98;3.45;;;14.80;99.90;;;;;;5053014;28;20035;-80
2023/08/07 02:55:35;;;;;;;8.85;2.22;;;14.90;99.90;;;;;;5053871;28;20031;-81
2023/08/07 02:58:01;;;;;;;13.60;2.25;;;14.90;99.90;;;;;;5053321;28;20365;-81
2023/08/07 03:00:26;;;;;;;8.98;1.75;;;14.90;99.90;;;;;;5052940;28;20473;-80
2023/08/07 03:02:52;;;;;;;13.07;1.88;;;14.90;99.90;;;;;;5054219;28;20095;-81
2023/08/07 03:05:18;;;;;;;13.73;2.08;;;14.90;99.90;;;;;;5054016;28;20037;-80
2023/08/07 03:07:43;;;;;;;10.98;2.95;;;14.90;99.90;;;;;;5052730;28;20029;-81
2023/08/07 03:10:09;;;;;;;9.75;2.20;;;14.90;99.90;;;;;;5053676;28;20444;-81
2023/08/07 03:12:35;;;;;;;9.70;2.88;;;14.80;99.90;;;;;;5053908;28;20108;-80
2023/08/07 03:15:00;;;;;;;13.05;2.22;;;14.80;99.90;;;;;;5052640;28;20029;-81
2023/08/07 03:17:26;;;;;;;10.10;1.85;;;14.90;99.90;;;;;;5052506;28;20358;-81
2023/08/07 03:19:52;;;;;;;8.57;1.70;;;14.80;99.90;;;;;;5052747;28;20033;-81
2023/08/07 03:22:17;;;;;;;9.23;2.05;;;14.80;99.90;;;;;;5053897;28;20112;-81
2023/08/07 03:24:49;;;;;;;14.05;2.40;;;14.80;99.90;;;;;;5052450;28;20033;-81
2023/08/07 03:27:15;;;;;;;9.38;1.83;;;14.80;99.90;;;;;;5053323;28;20132;-84
2023/08/07 03:29:41;;;;;;;10.00;2.55;;;14.70;99.90;;;;;;5053725;28;20123;-84
2023/08/07 03:32:08;;;;;;;13.35;2.25;;;14.80;99.90;;;;;;5053422;28;20392;-83
2023/08/07 03:34:33;;;;;;;10.57;1.80;;;14.70;99.90;;;;;;5053086;28;20028;-82
2023/08/07 03:36:59;;;;;;;11.93;2.05;;;14.70;99.90;;;;;;5053996;28;20544;-82
2023/08/07 03:39:25;;;;;;;9.20;2.03;;;14.60;99.90;;;;;;5052362;28;20453;-82
2023/08/07 03:41:50;;;;;;;7.85;1.60;;;14.70;99.90;;;;;;5053431;28;20028;-81
2023/08/07 03:44:16;;;;;;;10.65;1.80;;;14.70;99.90;;;;;;5052111;28;20067;-81
2023/08/07 03:46:42;;;;;;;8.50;1.60;;;14.70;99.90;;;;;;5053476;28;20425;-78
2023/08/07 03:49:07;;;;;;;10.45;2.00;;;14.70;99.90;;;;;;5053674;28;20120;-81
2023/08/07 03:51:33;;;;;;;9.30;1.95;;;14.70;99.90;;;;;;5053952;28;20350;-81
2023/08/07 03:53:59;;;;;;;8.32;1.77;;;14.70;99.90;;;;;;5053793;28;20021;-81
2023/08/07 03:56:24;;;;;;;11.18;2.28;;;14.70;99.90;;;;;;5056385;28;20033;-81
2023/08/07 03:58:50;;;;;;;8.15;1.77;;;14.70;99.90;;;;;;5054949;28;20033;-82
2023/08/07 04:01:16;;;;;;;8.93;1.45;;;14.60;99.90;;;;;;5056181;28;20366;-81
2023/08/07 04:03:42;;;;;;;9.63;1.50;;;14.60;99.90;;;;;;5054949;28;20029;-79
2023/08/07 04:06:07;;;;;;;7.88;2.15;;;14.60;99.90;;;;;;5056562;28;20572;-81
2023/08/07 04:08:33;;;;;;;9.55;1.77;;;14.60;99.90;;;;;;5056088;28;20354;-81
2023/08/07 04:11:02;;;;;;;6.47;1.40;;;14.70;99.90;;;;;;5055173;28;20029;-82
2023/08/07 04:13:29;;;;;;;13.82;1.67;;;14.70;99.90;;;;;;5057789;28;20028;-81
2023/08/07 04:15:54;;;;;;;6.05;1.30;;;14.60;99.90;;;;;;5058599;28;20025;-83
2023/08/07 04:18:20;;;;;;;5.82;1.25;;;14.60;99.90;;;;;;5053549;28;20044;-82
2023/08/07 04:20:56;;;;;;;7.45;1.80;;;14.60;99.90;;;;;;5053269;28;20036;-81
2023/08/07 04:23:22;;;;;;;5.65;1.17;;;14.60;99.90;;;;;;5053046;28;20518;-81
2023/08/07 04:25:49;;;;;;;6.90;1.50;;;14.60;99.90;;;;;;5051545;28;20036;-82
2023/08/07 04:28:15;;;;;;;8.70;1.63;;;14.60;99.90;;;;;;5053068;28;20029;-81
2023/08/07 04:30:41;;;;;;;5.47;1.05;;;14.60;99.90;;;;;;5052627;28;20475;-82
2023/08/07 04:33:07;;;;;;;7.38;1.17;;;14.70;99.90;;;;;;5051375;28;20508;-82
2023/08/07 04:35:33;;;;;;;8.43;1.15;;;14.70;99.90;;;;;;5052747;28;20410;-80
2023/08/07 04:38:00;;;;;;;12.20;1.73;;;14.70;99.90;;;;;;5052909;28;20025;-82
2023/08/07 04:40:25;;;;;;;10.35;2.05;;;14.60;99.90;;;;;;5052730;28;20063;-83
2023/08/07 04:42:51;;;;;;;6.53;1.23;;;14.60;99.90;;;;;;5035368;28;20025;-82
2023/08/07 04:45:17;;;;;;;4.68;1.40;;;14.60;99.90;;;;;;5034695;28;20029;-82
2023/08/07 04:47:42;;;;;;;6.78;1.75;;;14.60;99.90;;;;;;5052438;28;20029;-81
2023/08/07 04:50:09;;;;;;;6.28;1.30;;;14.60;99.90;;;;;;5052812;28;20084;-83
2023/08/07 04:52:35;;;;;;;6.35;1.33;;;14.60;99.90;;;;;;5052643;28;20033;-84
2023/08/07 04:55:01;;;;;;;9.73;2.42;;;14.70;99.90;;;;;;5052512;28;20036;-83
2023/08/07 04:57:27;;;;;;;8.85;1.73;;;14.70;99.90;;;;;;5034767;28;20393;-82
2023/08/07 04:59:53;;;;;;;7.50;1.30;;;14.70;99.90;;;;;;5051223;28;20027;-83
2023/08/07 05:02:19;;;;;;;6.07;1.27;;;14.70;99.90;;;;;;5051233;28;20501;-82
2023/08/07 05:04:45;;;;;;;5.70;1.30;;;14.70;99.90;;;;;;5052791;28;20025;-82
2023/08/07 05:07:11;;;;;;;5.80;1.40;;;14.70;99.90;;;;;;5052119;28;20111;-83
2023/08/07 05:09:36;;;;;;;6.43;1.25;;;14.80;99.90;;;;;;5052249;28;20454;-82
2023/08/07 05:12:02;;;;;;;7.32;1.30;;;14.80;99.90;;;;;;5052335;28;20049;-82
2023/08/07 05:14:29;;;;;;;6.80;1.75;;;14.70;99.90;;;;;;5053237;28;20037;-83
2023/08/07 05:16:55;;;;;;;10.00;1.63;;;14.70;99.90;;;;;;5052882;28;20078;-83
2023/08/07 05:19:20;;;;;;;8.25;1.77;;;14.70;99.90;;;;;;5052576;28;20393;-83
2023/08/07 05:21:49;;;;;;;10.15;2.08;;;14.70;99.90;;;;;;5052540;28;20122;-81
2023/08/07 05:24:15;;;;;;;8.38;1.88;;;14.70;99.90;;;;;;5052441;28;20029;-81
2023/08/07 05:26:41;;;;;;;8.25;1.77;;;14.80;99.90;;;;;;5052873;28;20358;-81
2023/08/07 05:29:07;;;;;;;10.88;2.50;;;14.70;99.90;;;;;;5054451;28;20041;-81
2023/08/07 05:31:33;;;;;;;9.65;2.17;;;14.70;99.90;;;;;;5038267;28;20071;-81
2023/08/07 05:33:59;;;;;;;12.10;2.00;;;14.70;99.90;;;;;;5056443;28;20048;-82
2023/08/07 05:36:25;;;;;;;13.90;2.55;;;14.70;99.90;;;;;;5055935;28;20521;-80
2023/08/07 05:38:51;;;;;;;13.07;2.85;;;14.70;99.90;;;;;;5054199;28;20033;-81
2023/08/07 05:41:16;;;;;;;12.43;2.20;;;14.70;99.90;;;;;;5054922;28;20033;-81
2023/08/07 05:43:42;;;;;;;9.18;1.73;;;14.70;99.90;;;;;;5038135;28;20025;-81
2023/08/07 05:46:08;;;;;;;13.82;2.42;;;14.80;99.90;;;;;;5037861;28;20044;-81
2023/08/07 05:48:33;;;;;;;13.00;2.13;;;14.80;99.90;;;;;;5055393;28;20032;-81
2023/08/07 05:50:59;;;;;;;9.82;1.90;;;14.80;99.90;;;;;;5055717;28;20029;-81
2023/08/07 05:53:25;;;;;;;10.25;2.17;;;14.80;99.90;;;;;;5055487;28;20386;-81
2023/08/07 05:55:50;;;;;;;10.35;2.25;;;14.90;99.90;;;;;;5055652;28;20033;-80
2023/08/07 05:58:16;;;;;;;12.70;2.10;;;14.90;99.90;;;;;;5037351;28;20079;-80
2023/08/07 06:00:42;;;;;;;11.45;2.00;;;15.00;99.90;;;;;;5055617;28;20032;-80
2023/08/07 06:03:07;;;;;;;12.70;2.45;;;15.00;99.90;;;;;;5055022;28;20025;-79
2023/08/07 06:05:34;;;;;;;10.55;2.17;;;15.00;99.90;;;;;;5054030;28;20141;-79
2023/08/07 06:08:00;;;;;;;8.90;2.20;;;15.00;99.90;;;;;;5055559;28;20112;-81
2023/08/07 06:10:26;;;;;;;8.63;2.10;;;15.00;99.90;;;;;;5055322;28;20075;-80
2023/08/07 06:12:52;;;;;;;6.72;1.27;;;15.00;99.90;;;;;;5055710;28;20033;-80
2023/08/07 06:15:18;;;;;;;9.25;2.10;;;15.00;99.90;;;;;;5055786;28;20078;-78
2023/08/07 06:17:43;;;;;;;11.95;2.13;;;15.10;99.90;;;;;;5055548;28;20033;-78
2023/08/07 06:20:11;;;;;;;5.93;1.50;;;15.10;99.90;;;;;;5056297;28;20033;-79
2023/08/07 06:22:37;;;;;;;10.30;1.83;;;15.10;99.90;;;;;;5059429;28;20146;-78
2023/08/07 06:25:02;;;;;;;7.32;1.80;;;15.10;99.90;;;;;;5057269;28;20061;-78
2023/08/07 06:27:28;;;;;;;6.63;1.45;;;15.20;99.90;;;;;;5058533;28;20037;-78
2023/08/07 06:29:54;;;;;;;6.82;2.03;;;15.30;99.90;;;;;;5058849;28;20393;-79
2023/08/07 06:32:20;;;;;;;12.40;2.17;;;15.40;99.90;;;;;;5059107;28;20053;-77
2023/08/07 06:34:46;;;;;;;9.07;1.60;;;15.40;99.90;;;;;;5057382;28;20029;-77
2023/08/07 06:37:12;;;;;;;11.15;2.40;;;15.40;99.90;;;;;;5056739;28;20044;-79
2023/08/07 06:39:38;;;;;;;12.70;2.67;;;15.40;99.90;;;;;;5056524;28;20041;-79
2023/08/07 06:42:04;;;;;;;9.43;2.17;;;15.40;99.90;;;;;;5057510;28;20037;-78
2023/08/07 06:44:30;;;;;;;11.05;2.13;;;15.40;99.90;;;;;;5055124;28;20033;-79
2023/08/07 06:46:55;;;;;;;15.05;2.85;;;15.40;99.90;;;;;;5056023;28;20116;-81
2023/08/07 06:49:21;;;;;;;13.10;2.25;;;15.50;99.90;;;;;;5054575;28;20060;-80
2023/08/07 06:51:46;;;;;;;15.85;2.45;;;15.50;99.90;;;;;;5056214;28;20036;-80
2023/08/07 06:54:12;;;;;;;12.88;2.60;;;15.50;99.90;;;;;;5054477;28;20032;-79
2023/08/07 06:56:40;;;;;;;11.70;2.70;;;15.70;99.90;;;;;;5055819;28;20116;-79
2023/08/07 06:59:06;;;;;;;14.63;2.30;;;15.70;99.90;;;;;;5055544;28;20115;-78
2023/08/07 07:01:32;;;;;;;10.80;2.70;;;15.80;99.90;;;;;;5055879;28;20071;-80
2023/08/07 07:03:57;;;;;;;14.35;2.58;;;15.80;99.90;;;;;;5054458;28;20029;-79
2023/08/07 07:06:25;;;;;;;9.52;2.30;;;15.80;99.90;;;;;;5055703;28;20025;-78
2023/08/07 07:08:54;;;;;;;13.05;2.13;;;15.90;99.90;;;;;;5055689;28;20462;-79
2023/08/07 07:11:20;;;;;;;11.75;2.58;;;16.00;99.90;;;;;;5055543;28;20511;-79
2023/08/07 07:13:46;;;;;;;8.07;2.00;;;16.00;99.90;;;;;;5057008;28;20159;-79
2023/08/07 07:16:13;;;;;;;8.00;2.00;;;16.00;99.90;;;;;;5057089;28;20122;-79
2023/08/07 07:18:39;;;;;;;10.20;2.38;;;16.00;99.90;;;;;;5055059;28;20025;-78
2023/08/07 07:21:04;;;;;;;10.50;1.65;;;16.10;99.90;;;;;;5054077;28;20076;-78
2023/08/07 07:23:30;;;;;;;9.70;1.88;;;16.20;99.90;;;;;;5036366;28;20527;-78
2023/08/07 07:25:57;;;;;;;14.43;2.30;;;16.20;99.90;;;;;;5054240;28;20052;-78
2023/08/07 07:28:23;;;;;;;9.70;2.22;;;16.30;99.90;;;;;;5055847;28;20469;-79
2023/08/07 07:30:52;;;;;;;11.13;1.92;;;16.30;99.90;;;;;;5054655;28;20381;-80
2023/08/07 07:33:18;;;;;;;11.93;2.00;;;16.30;99.90;;;;;;5052410;28;20397;-77
2023/08/07 07:35:43;;;;;;;14.27;2.28;;;16.30;99.90;;;;;;5053898;28;20032;-79
2023/08/07 07:38:10;;;;;;;12.20;2.10;;;16.30;99.90;;;;;;5053494;28;20051;-80
2023/08/07 07:40:36;;;;;;;9.63;2.22;;;16.30;99.90;;;;;;5053951;28;20040;-80
2023/08/07 07:43:02;;;;;;;11.32;2.00;;;16.30;99.90;;;;;;5053656;28;20028;-80
2023/08/07 07:45:28;;;;;;;13.98;2.25;;;16.30;99.90;;;;;;5053638;28;20171;-80
2023/08/07 07:47:53;;;;;;;8.23;2.03;;;16.40;99.90;;;;;;5053430;28;20029;-81
2023/08/07 07:50:19;;;;;;;8.80;1.83;;;16.60;99.90;;;;;;5052937;28;20133;-80
2023/08/07 07:52:45;;;;;;;10.57;2.28;;;16.80;99.90;;;;;;5052293;28;20037;-81
2023/08/07 07:55:12;;;;;;;10.55;1.98;;;16.90;99.90;;;;;;5053919;28;20025;-81
2023/08/07 07:57:37;;;;;;;10.15;2.25;;;16.80;99.90;;;;;;5053494;28;20051;-80
2023/08/07 08:00:07;;;;;;;7.95;1.95;;;16.80;99.90;;;;;;5052169;28;20470;-80
2023/08/07 08:02:33;;;;;;;11.48;2.28;;;16.70;99.90;;;;;;5053464;28;20055;-80
2023/08/07 08:04:58;;;;;;;9.25;2.17;;;16.60;99.90;;;;;;5053285;28;20500;-80
2023/08/07 08:07:25;;;;;;;8.68;2.28;;;16.60;99.90;;;;;;5052609;28;20402;-80
2023/08/07 08:09:51;;;;;;;9.07;2.42;;;16.50;99.90;;;;;;5053611;28;20380;-80
2023/08/07 08:12:17;;;;;;;9.38;2.22;;;16.50;99.90;;;;;;5051617;28;20032;-80
2023/08/07 08:14:43;;;;;;;12.73;2.10;;;16.60;99.90;;;;;;5052756;28;20074;-80
2023/08/07 08:17:08;;;;;;;10.77;2.25;;;16.70;99.90;;;;;;5053467;28;20389;-80
2023/08/07 08:19:34;;;;;;;11.45;2.33;;;16.80;99.90;;;;;;5051558;28;20060;-80
2023/08/07 08:22:00;;;;;;;11.35;2.05;;;16.90;99.90;;;;;;5052059;28;20483;-81
2023/08/07 08:24:26;;;;;;;10.82;2.10;;;17.00;99.90;;;;;;5052573;28;20063;-80
2023/08/07 08:26:52;;;;;;;8.30;2.08;;;17.00;99.90;;;;;;5051946;28;20029;-80
2023/08/07 08:29:17;;;;;;;12.10;2.85;;;17.20;99.90;;;;;;5053902;28;20041;-79
2023/08/07 08:31:43;;;;;;;10.95;2.08;;;17.30;99.90;;;;;;5056180;28;20025;-80
2023/08/07 08:34:09;;;;;;;11.07;1.88;;;17.50;99.90;;;;;;5058820;28;20029;-78
2023/08/07 08:36:34;;;;;;;6.78;1.58;;;17.60;99.90;;;;;;5058723;28;20037;-79
2023/08/07 08:39:00;;;;;;;7.57;1.42;;;17.60;99.90;;;;;;5057133;28;20063;-80
2023/08/07 08:41:26;;;;;;;11.93;2.38;;;17.70;99.90;;;;;;5055044;28;20025;-81
2023/08/07 08:43:53;;;;;;;11.82;2.00;;;17.70;99.90;;;;;;5053143;28;20094;-80
2023/08/07 08:46:23;;;;;;;8.63;1.65;;;17.80;99.90;;;;;;5053169;28;20040;-79
2023/08/07 08:48:54;;;;;;;15.00;2.08;;;17.70;99.90;;;;;;5052424;28;20037;-81
2023/08/07 08:51:21;;;;;;;9.60;2.38;;;17.60;99.90;;;;;;5053666;28;20107;-81
2023/08/07 08:53:49;;;;;;;7.45;1.90;;;17.60;99.90;;;;;;5051672;28;20418;-81
2023/08/07 08:56:15;;;;;;;15.40;4.05;;;17.30;99.90;;;;;;5053132;28;20458;-81
2023/08/07 08:58:41;;;;;;;13.65;2.42;;;17.20;99.90;;;;;;5053244;28;20450;-81
2023/08/07 09:01:08;;;;;;;10.23;1.98;;;17.00;99.90;;;;;;5052858;28;20105;-81
2023/08/07 09:03:34;;;;;;;12.13;2.25;;;16.90;99.90;;;;;;5053850;28;20029;-81
2023/08/07 09:06:00;;;;;;;9.95;2.08;;;16.80;99.90;;;;;;5057717;28;20602;-81
2023/08/07 09:08:29;;;;;;;10.00;2.00;;;16.80;99.90;;;;;;5058243;28;20117;-80
2023/08/07 09:10:55;;;;;;;12.13;2.20;;;16.80;99.90;;;;;;5057271;28;20068;-81
2023/08/07 09:13:24;;;;;;;21.25;3.33;;;17.00;99.90;;;;;;5057022;28;20028;-81
2023/08/07 09:15:51;;;;;;;10.65;2.40;;;17.00;99.90;;;;;;5055752;28;20056;-84
2023/08/07 09:18:20;;;;;;;15.35;2.80;;;17.10;99.90;;;;;;5055140;28;20033;-81
2023/08/07 09:20:46;;;;;;;10.15;2.55;;;17.30;99.90;;;;;;5055828;28;20037;-81
2023/08/07 09:23:11;;;;;;;11.45;2.50;;;17.40;99.90;;;;;;5054814;28;20039;-80
2023/08/07 09:25:37;;;;;;;7.28;2.22;;;17.50;99.90;;;;;;5056101;28;20116;-81
2023/08/07 09:28:06;;;;;;;12.40;2.45;;;17.60;99.90;;;;;;5038572;28;20064;-81
2023/08/07 09:30:34;;;;;;;10.00;1.98;;;17.80;99.90;;;;;;5055920;28;20040;-81
2023/08/07 09:33:01;;;;;;;8.23;1.88;;;18.00;99.90;;;;;;5055313;28;20424;-80
2023/08/07 09:35:28;;;;;;;8.95;1.83;;;18.00;99.90;;;;;;5055429;28;20116;-81
2023/08/07 09:37:56;;;;;;;11.93;1.88;;;18.10;99.90;;;;;;5055886;28;20056;-81
2023/08/07 09:40:22;;;;;;;8.20;2.35;;;18.00;99.90;;;;;;5054673;28;20423;-81
2023/08/07 09:42:53;;;;;;;11.95;2.08;;;17.90;99.90;;;;;;5055679;28;20029;-82
2023/08/07 09:45:22;;;;;;;13.63;2.05;;;17.90;99.90;;;;;;5055739;28;20390;-80
2023/08/07 09:48:01;;;;;;;7.97;1.30;;;17.80;99.90;;;;;;5055952;28;20057;-80
2023/08/07 09:50:28;;;;;;;10.32;1.67;;;17.70;99.90;;;;;;5056468;28;20048;-79
2023/08/07 09:52:55;;;;;;;10.40;1.80;;;17.70;99.90;;;;;;5055951;28;20055;-80
2023/08/07 09:55:21;;;;;;;7.10;1.60;;;17.60;99.90;;;;;;5054313;28;20203;-81
2023/08/07 09:57:48;;;;;;;9.35;2.40;;;17.80;99.90;;;;;;5055251;28;20070;-78
2023/08/07 10:00:15;;;;;;;10.35;1.58;;;18.00;99.90;;;;;;5055439;28;20037;-80
2023/08/07 10:02:44;;;;;;;6.13;1.33;;;18.20;99.90;;;;;;5055420;28;20116;-81
2023/08/07 10:05:11;;;;;;;11.90;1.60;;;18.30;99.90;;;;;;5054288;28;20102;-82
2023/08/07 10:07:39;;;;;;;6.55;1.33;;;18.50;99.90;;;;;;5055564;28;20100;-82
2023/08/07 10:10:07;;;;;;;6.32;1.48;;;18.60;99.90;;;;;;5055345;28;20044;-81
2023/08/07 10:12:33;;;;;;;9.93;1.67;;;18.70;99.90;;;;;;5055351;28;20108;-82
2023/08/07 10:15:02;;;;;;;9.68;1.40;;;18.90;99.90;;;;;;5053834;28;20527;-80
2023/08/07 10:17:28;;;;;;;9.55;1.98;;;19.00;99.90;;;;;;5053776;28;20388;-83
2023/08/07 10:19:53;;;;;;;8.30;1.45;;;19.00;99.80;;;;;;5053995;28;20139;-83
2023/08/07 10:22:20;;;;;;;6.32;1.25;;;18.90;99.60;;;;;;5054585;28;20071;-82
2023/08/07 10:24:48;;;;;;;5.82;1.35;;;18.70;99.40;;;;;;5054800;28;20124;-85
2023/08/07 10:27:18;;;;;;;8.15;1.50;;;18.60;99.90;;;;;;5054527;28;20044;-82
2023/08/07 10:29:47;;;;;;;8.30;1.45;;;18.50;99.90;;;;;;5054812;28;20102;-84
2023/08/07 10:32:15;;;;;;;7.00;1.42;;;18.50;99.90;;;;;;5052487;28;20421;-85
2023/08/07 10:34:46;;;;;;;7.85;1.60;;;18.40;99.90;;;;;;5054765;28;20033;-82
2023/08/07 10:37:42;;;;;;;10.25;2.13;;;18.40;99.90;;;;;;5053702;28;20024;-83
2023/08/07 10:40:12;;;;;;;9.13;2.03;;;18.30;99.40;;;;;;5055315;28;20032;-84
2023/08/07 10:42:52;;;;;;;10.98;1.75;;;18.30;99.90;;;;;;5055898;28;20109;-83
2023/08/07 10:45:21;;;;;;;6.95;1.33;;;18.30;99.90;;;;;;5054701;28;20036;-83
2023/08/07 10:48:06;;;;;;;9.32;1.80;;;18.20;99.90;;;;;;5037734;28;20033;-82
2023/08/07 10:50:32;;;;;;;8.63;1.83;;;18.10;99.90;;;;;;5053610;28;20100;-83
2023/08/07 10:53:04;;;;;;;8.10;1.60;;;18.00;99.90;;;;;;5054411;28;20029;-83
2023/08/07 10:55:46;;;;;;;8.52;1.67;;;17.90;99.90;;;;;;5054474;28;20029;-82
2023/08/07 10:58:25;;;;;;;9.27;1.50;;;18.00;99.90;;;;;;5054596;28;20035;-82
2023/08/07 11:01:22;;;;;;;9.75;2.15;;;18.00;99.90;;;;;;5054784;28;20083;-81
2023/08/07 11:03:55;;;;;;;12.02;2.65;;;18.20;99.90;;;;;;5054486;28;20029;-82
2023/08/07 11:06:24;;;;;;;9.05;1.40;;;18.30;99.90;;;;;;5053079;28;20036;-82
2023/08/07 11:08:50;;;;;;;7.38;1.25;;;18.40;99.90;;;;;;5054395;28;20028;-83
2023/08/07 11:11:16;;;;;;;5.18;1.08;;;18.60;99.90;;;;;;5052645;28;20033;-82
2023/08/07 11:13:42;;;;;;;7.13;1.33;;;18.80;99.50;;;;;;5052457;28;20029;-83
2023/08/07 11:16:08;;;;;;;7.00;1.15;;;18.90;99.10;;;;;;5052689;28;20032;-81
2023/08/07 11:18:35;;;;;;;5.72;0.98;;;19.00;99.20;;;;;;5053892;28;20029;-82
2023/08/07 11:21:01;;;;;;;5.07;1.20;;;19.20;99.50;;;;;;5052973;28;20453;-82
2023/08/07 11:23:28;;;;;;;7.38;1.10;;;19.30;98.50;;;;;;5053922;28;20029;-82
2023/08/07 11:25:54;;;;;;;4.93;1.05;;;19.40;97.30;;;;;;5052697;28;20048;-83
2023/08/07 11:28:21;;;;;;;3.15;0.95;;;19.60;97.50;;;;;;5053004;28;20412;-82
2023/08/07 11:30:52;;;;;;;9.70;1.33;;;19.50;96.60;;;;;;5052359;28;20043;-82
2023/08/07 11:33:28;;;;;;;7.95;1.35;;;19.30;96.20;;;;;;5053617;28;20205;-82
2023/08/07 11:35:55;;;;;;;4.43;1.23;;;19.20;96.70;;;;;;5053722;28;20028;-81
2023/08/07 11:38:33;;;;;;;6.72;1.10;;;19.10;96.80;;;;;;5052202;28;20040;-82
2023/08/07 11:41:00;;;;;;;6.85;1.00;;;19.10;97.40;;;;;;5053561;28;20033;-82
2023/08/07 11:43:30;;;;;;;5.50;1.08;;;19.10;97.60;;;;;;5052092;28;20032;-82
2023/08/07 11:45:57;;;;;;;6.25;1.27;;;19.10;96.80;;;;;;5053480;28;20536;-84
2023/08/07 11:48:30;;;;;;;6.25;1.30;;;19.00;96.90;;;;;;5052298;28;20553;-82
2023/08/07 11:50:57;;;;;;;6.38;1.20;;;19.00;97.00;;;;;;5052938;28;20481;-82
2023/08/07 11:53:25;;;;;;;3.35;1.25;;;19.00;96.60;;;;;;5052763;28;20338;-83
2023/08/07 11:55:57;;;;;;;7.38;1.10;;;18.80;96.40;;;;;;5052685;28;20029;-82
2023/08/07 11:58:24;;;;;;;6.45;1.17;;;18.80;97.20;;;;;;5053330;28;20036;-82
2023/08/07 12:00:50;;;;;;;4.60;1.33;;;18.70;97.50;;;;;;5053189;28;20037;-84
2023/08/07 12:03:31;;;;;;;5.57;1.15;;;18.70;98.00;;;;;;5053923;28;20052;-81
2023/08/07 12:05:59;;;;;;;7.05;0.95;;;18.60;97.00;;;;;;5052776;28;20051;-83
2023/08/07 12:08:31;;;;;;;7.40;1.30;;;18.70;96.10;;;;;;5052348;28;20029;-81
2023/08/07 12:10:56;;;;;;;7.65;1.70;;;18.80;95.80;;;;;;5052814;28;20078;-81
2023/08/07 12:13:29;;;;;;;8.13;1.15;;;19.00;95.50;;;;;;5051757;28;20037;-82
2023/08/07 12:15:56;;;;;;;6.88;1.30;;;19.10;95.50;;;;;;5052145;28;20070;-81
2023/08/07 12:18:23;;;;;;;4.15;0.80;;;19.20;95.40;;;;;;5053594;28;20428;-82
2023/08/07 12:20:52;;;;;;;5.82;1.00;;;19.30;95.50;;;;;;5053783;28;20037;-81
2023/08/07 12:23:20;;;;;;;9.85;1.67;;;19.30;94.50;;;;;;5053039;28;20083;-81
2023/08/07 12:25:45;;;;;;;6.95;1.20;;;19.30;94.90;;;;;;5052355;28;20033;-82
2023/08/07 12:28:11;;;;;;;7.63;1.20;;;19.40;95.40;;;;;;5053130;28;20052;-82
2023/08/07 12:30:38;;;;;;;6.80;1.33;;;19.60;96.10;;;;;;5051157;28;20037;-82
2023/08/07 12:33:04;;;;;;;5.90;1.10;;;19.80;95.40;;;;;;5052866;28;20053;-84
2023/08/07 12:35:30;;;;;;;6.30;1.33;;;19.90;95.10;;;;;;5052868;28;20036;-82
2023/08/07 12:37:56;;;;;;;7.15;1.17;;;20.00;95.20;;;;;;5052196;28;20382;-82
2023/08/07 12:40:23;;;;;;;6.55;1.70;;;20.10;94.60;;;;;;5056831;28;20033;-82
2023/08/07 12:42:49;;;;;;;6.60;1.40;;;20.10;94.60;;;;;;5057111;28;20036;-82